Time;durP1;ratioP1;P1;durP2;ratioP2;P2;SDS_P1;SDS_P2;PMS_P1;PMS_P2;Temp;Humidity;BMP_temperature;BMP_pressure;BME280_temperature;BME280_humidity;BME280_pressure;Samples;Min_cycle;Max_cycle;Signal;HPM_P1;HPM_P2
2022/04/14 04:00:10;;;;;;;13.00;8.30;;;;;;;8.43;62.57;101085.81;5605954;31;82063;-56
2022/04/14 04:03:13;;;;;;;11.82;8.82;;;;;;;8.43;62.57;101085.81;5582905;31;33865;-57
2022/04/14 04:06:15;;;;;;;13.60;8.70;;;;;;;8.03;63.05;101096.72;5583512;31;34214;-57
2022/04/14 04:09:18;;;;;;;12.77;8.88;;;;;;;7.96;62.97;101094.22;5583600;31;33733;-57
2022/04/14 04:12:21;;;;;;;13.32;8.82;;;;;;;7.99;63.29;101089.22;5583150;31;35137;-57
2022/04/14 04:15:24;;;;;;;12.82;8.45;;;;;;;7.91;63.10;101096.81;5581871;31;33632;-57
2022/04/14 04:18:26;;;;;;;14.65;9.30;;;;;;;8.01;62.85;101099.62;5583354;32;33752;-57
2022/04/14 04:21:30;;;;;;;12.07;8.40;;;;;;;7.91;62.69;101102.16;5583416;31;33510;-57
2022/04/14 04:24:32;;;;;;;12.52;8.32;;;;;;;7.92;62.39;101109.94;5583532;31;34176;-57
2022/04/14 04:27:35;;;;;;;13.05;8.43;;;;;;;8.03;62.65;101104.75;5574731;32;34785;-57
2022/04/14 04:30:37;;;;;;;17.75;9.15;;;;;;;8.09;62.07;101106.44;5563780;32;33596;-57
2022/04/14 04:33:40;;;;;;;13.77;8.15;;;;;;;8.01;62.36;101107.63;5563644;32;33730;-57
2022/04/14 04:36:42;;;;;;;13.88;8.20;;;;;;;8.09;61.85;101104.56;5563840;32;34239;-57
2022/04/14 04:39:44;;;;;;;12.85;8.35;;;;;;;8.03;61.72;101102.88;5563729;32;34324;-57
2022/04/14 04:42:46;;;;;;;14.57;8.27;;;;;;;7.95;62.08;101104.09;5563757;32;33712;-56
2022/04/14 04:45:49;;;;;;;12.77;9.23;;;;;;;8.12;63.79;101108.63;5562305;32;33551;-57
2022/04/14 04:48:51;;;;;;;20.75;9.40;;;;;;;8.14;61.39;101117.97;5572055;32;33632;-57
2022/04/14 04:51:54;;;;;;;15.93;9.13;;;;;;;8.13;61.61;101113.69;5583124;31;33673;-57
2022/04/14 04:54:56;;;;;;;12.82;9.18;;;;;;;8.03;62.29;101121.56;5580115;31;34406;-57
2022/04/14 04:57:58;;;;;;;17.05;8.95;;;;;;;8.08;62.37;101118.97;5579834;31;33597;-57
2022/04/14 05:01:00;;;;;;;13.85;9.10;;;;;;;8.10;61.62;101119.53;5578797;32;32926;-57
2022/04/14 05:04:03;;;;;;;13.70;9.25;;;;;;;8.15;61.96;101116.94;5568306;32;34377;-57
2022/04/14 05:07:05;;;;;;;16.52;9.60;;;;;;;8.20;62.45;101122.34;5580508;31;34302;-57
2022/04/14 05:10:08;;;;;;;20.52;9.35;;;;;;;8.27;62.03;101134.72;5572622;31;33379;-57
2022/04/14 05:13:10;;;;;;;19.83;9.70;;;;;;;8.26;62.09;101128.56;5565349;32;33630;-57
2022/04/14 05:16:13;;;;;;;15.95;10.05;;;;;;;8.27;62.02;101127.50;5567204;32;33723;-57
2022/04/14 05:19:15;;;;;;;16.52;11.15;;;;;;;8.19;62.22;101119.94;5565136;32;34375;-57
2022/04/14 05:22:18;;;;;;;20.25;11.25;;;;;;;8.29;61.72;101127.28;5565450;32;34363;-57
2022/04/14 05:25:22;;;;;;;13.62;9.35;;;;;;;8.42;61.41;101135.78;5567136;32;33973;-57
2022/04/14 05:28:25;;;;;;;14.98;9.15;;;;;;;8.50;60.21;101142.53;5567098;32;33418;-57
2022/04/14 05:31:28;;;;;;;14.32;10.23;;;;;;;8.68;59.42;101138.78;5563990;32;34088;-57
2022/04/14 05:34:31;;;;;;;15.48;10.15;;;;;;;8.72;59.86;101137.22;5560128;32;33685;-57
2022/04/14 05:37:33;;;;;;;15.93;10.27;;;;;;;8.72;59.69;101139.09;5566671;32;34337;-57
2022/04/14 05:40:41;;;;;;;20.17;10.13;;;;;;;8.74;59.54;101145.81;5566679;32;33780;-57
2022/04/14 05:43:43;;;;;;;18.98;10.82;;;;;;;8.91;59.16;101145.72;5566062;32;34303;-57
2022/04/14 05:46:45;;;;;;;17.95;10.82;;;;;;;8.86;59.39;101156.34;5566662;32;33214;-57
2022/04/14 05:49:47;;;;;;;22.83;11.60;;;;;;;8.99;59.10;101155.97;5563203;32;33624;-57
2022/04/14 05:52:50;;;;;;;25.45;11.00;;;;;;;9.08;57.94;101151.00;5566604;32;34344;-57
2022/04/14 05:55:52;;;;;;;18.65;11.88;;;;;;;9.16;58.00;101155.87;5565723;31;34293;-57
2022/04/14 05:58:54;;;;;;;20.58;11.27;;;;;;;9.30;58.11;101149.06;5565733;32;33640;-57
2022/04/14 06:01:56;;;;;;;19.73;11.25;;;;;;;9.48;57.53;101161.31;5566036;32;34304;-57
2022/04/14 06:04:59;;;;;;;19.77;10.98;;;;;;;9.55;57.69;101151.19;5565681;32;33328;-57
2022/04/14 06:08:01;;;;;;;14.30;10.23;;;;;;;9.83;55.99;101149.28;5566363;32;34221;-57
2022/04/14 06:11:05;;;;;;;21.58;11.50;;;;;;;10.01;56.11;101148.06;5563092;31;33405;-57
2022/04/14 06:14:07;;;;;;;17.42;11.38;;;;;;;10.35;54.60;101141.34;5565072;31;34219;-57
2022/04/14 06:17:10;;;;;;;19.25;11.73;;;;;;;10.43;54.68;101142.75;5565708;32;33810;-57
2022/04/14 06:20:13;;;;;;;22.60;11.95;;;;;;;10.69;53.15;101137.47;5562485;32;33947;-57
2022/04/14 06:23:16;;;;;;;19.83;12.20;;;;;;;10.81;52.90;101135.37;5565697;32;33956;-57
2022/04/14 06:26:18;;;;;;;25.23;12.60;;;;;;;11.07;53.17;101148.91;5565360;32;34259;-57
2022/04/14 06:29:20;;;;;;;19.23;11.77;;;;;;;11.20;53.13;101143.03;5564644;32;34402;-57
2022/04/14 06:32:22;;;;;;;23.27;11.88;;;;;;;11.51;52.45;101143.84;5565965;32;34273;-57
2022/04/14 06:35:29;;;;;;;16.40;11.23;;;;;;;11.90;51.40;101136.09;5564804;31;33733;-57
2022/04/14 06:38:31;;;;;;;25.12;12.88;;;;;;;12.14;50.97;101130.94;5565890;32;34371;-57
2022/04/14 06:41:34;;;;;;;19.98;13.25;;;;;;;12.40;50.11;101139.75;5566162;32;34030;-57
2022/04/14 06:44:36;;;;;;;26.65;13.90;;;;;;;12.63;48.75;101137.53;5563563;32;34312;-57
2022/04/14 06:47:39;;;;;;;25.55;13.10;;;;;;;12.76;49.64;101134.25;5566335;32;33713;-57
2022/04/14 06:50:41;;;;;;;20.65;13.82;;;;;;;12.80;50.93;101142.56;5563720;32;33267;-57
2022/04/14 06:53:44;;;;;;;24.42;14.65;;;;;;;13.03;48.64;101133.03;5565991;32;34835;-57
2022/04/14 06:56:46;;;;;;;36.03;14.93;;;;;;;13.14;48.34;101131.87;5564761;32;33744;-57
2022/04/14 06:59:49;;;;;;;26.20;12.52;;;;;;;13.17;46.86;101140.22;5564989;32;33486;-57
2022/04/14 07:02:55;;;;;;;28.40;13.35;;;;;;;13.19;46.63;101142.63;5566361;32;33813;-57
2022/04/14 07:06:00;;;;;;;25.65;11.80;;;;;;;13.24;46.15;101133.72;5565029;32;33382;-58
2022/04/14 07:09:02;;;;;;;23.20;11.65;;;;;;;13.51;44.07;101130.59;5564152;31;33152;-57
2022/04/14 07:12:06;;;;;;;24.58;12.13;;;;;;;13.76;42.95;101132.28;5564428;32;33292;-57
2022/04/14 07:15:09;;;;;;;20.17;11.18;;;;;;;13.83;42.84;101127.38;5565924;31;34297;-57
2022/04/14 07:18:12;;;;;;;12.57;8.15;;;;;;;13.98;42.33;101137.22;5560237;32;33755;-57
2022/04/14 07:21:14;;;;;;;16.80;8.55;;;;;;;14.12;40.53;101131.94;5560154;32;33163;-58
2022/04/14 07:24:16;;;;;;;18.83;10.25;;;;;;;14.21;40.70;101135.63;5563866;32;34305;-57
2022/04/14 07:27:20;;;;;;;20.02;10.48;;;;;;;14.32;41.37;101135.22;5561574;32;33633;-58
2022/04/14 07:30:26;;;;;;;19.35;12.23;;;;;;;14.35;41.24;101139.25;5561106;32;33681;-58
2022/04/14 07:33:28;;;;;;;20.33;13.10;;;;;;;14.51;43.52;101124.53;5563418;32;34713;-57
2022/04/14 07:36:31;;;;;;;28.95;13.43;;;;;;;14.61;41.43;101130.91;5560792;32;33589;-57
2022/04/14 07:39:40;;;;;;;21.48;13.93;;;;;;;14.63;43.34;101132.19;5564156;32;34182;-58
2022/04/14 07:42:47;;;;;;;22.02;14.55;;;;;;;14.50;42.15;101130.16;5565666;32;33575;-58
2022/04/14 07:45:49;;;;;;;24.00;14.50;;;;;;;14.50;43.16;101135.56;5564824;32;34340;-58
2022/04/14 07:48:52;;;;;;;27.73;14.40;;;;;;;14.55;42.95;101133.66;5564097;32;33688;-58
2022/04/14 07:51:55;;;;;;;21.50;13.18;;;;;;;14.69;40.58;101125.66;5561869;32;34339;-57
2022/04/14 07:54:58;;;;;;;18.58;12.90;;;;;;;14.77;39.88;101135.03;5560428;31;33681;-58
2022/04/14 07:58:06;;;;;;;20.05;12.13;;;;;;;14.87;38.81;101140.28;5562982;32;32325;-58
2022/04/14 08:01:09;;;;;;;21.77;11.57;;;;;;;14.90;39.06;101138.87;5560368;32;33707;-58
2022/04/14 08:04:12;;;;;;;16.55;10.07;;;;;;;14.96;36.57;101125.00;5559576;32;34393;-58
2022/04/14 08:07:14;;;;;;;14.65;10.23;;;;;;;15.02;34.69;101123.84;5565334;32;33950;-57
2022/04/14 08:10:20;;;;;;;14.87;8.82;;;;;;;15.07;33.82;101123.00;5564376;32;34494;-58
2022/04/14 08:13:25;;;;;;;12.90;8.18;;;;;;;15.12;35.71;101130.22;5565242;32;33719;-57
2022/04/14 08:16:28;;;;;;;13.57;8.82;;;;;;;15.21;34.05;101131.16;5564334;32;33713;-58
2022/04/14 08:19:34;;;;;;;14.95;6.95;;;;;;;15.25;34.65;101126.78;5562126;32;34334;-57
2022/04/14 08:23:05;;;;;;;11.57;7.22;;;;;;;15.26;34.08;101123.81;5562798;32;34051;-57
2022/04/14 08:26:08;;;;;;;13.52;7.55;;;;;;;15.52;31.37;101128.78;5564446;32;33728;-58
2022/04/14 08:29:19;;;;;;;11.05;7.03;;;;;;;15.51;29.25;101130.69;5560509;32;34301;-58
2022/04/14 08:32:22;;;;;;;13.75;6.65;;;;;;;15.50;32.43;101134.50;5561538;32;33724;-57
2022/04/14 08:35:26;;;;;;;10.52;6.82;;;;;;;15.58;31.31;101129.50;5564245;32;33314;-58
2022/04/14 08:38:28;;;;;;;12.60;6.65;;;;;;;15.73;33.38;101124.69;5563160;32;33711;-58
2022/04/14 08:41:36;;;;;;;10.25;6.15;;;;;;;15.84;32.75;101129.94;5564534;32;33414;-58
2022/04/14 08:44:49;;;;;;;13.38;7.62;;;;;;;15.95;35.28;101124.03;5563544;32;33116;-58
2022/04/14 08:47:51;;;;;;;9.88;6.18;;;;;;;16.10;31.85;101125.66;5566867;32;33529;-57
2022/04/14 08:50:54;;;;;;;14.93;6.20;;;;;;;16.16;31.88;101120.97;5564945;32;34444;-57
2022/04/14 08:53:58;;;;;;;13.15;6.82;;;;;;;16.36;34.33;101119.78;5562149;32;33947;-58
2022/04/14 08:57:02;;;;;;;9.95;5.90;;;;;;;16.32;28.68;101121.47;5566587;32;32028;-58
2022/04/14 09:00:07;;;;;;;11.63;6.28;;;;;;;16.31;34.19;101114.44;5566792;32;33568;-58
2022/04/14 09:03:12;;;;;;;10.85;6.03;;;;;;;16.33;31.92;101121.16;5565955;32;33697;-58
2022/04/14 09:06:15;;;;;;;13.20;4.78;;;;;;;16.35;30.05;101107.31;5562101;32;33666;-57
2022/04/14 09:09:17;;;;;;;6.97;4.70;;;;;;;16.41;29.91;101108.84;5566441;32;33615;-58
2022/04/14 09:12:20;;;;;;;8.20;5.12;;;;;;;16.50;31.71;101115.16;5565592;31;33310;-58
2022/04/14 09:15:23;;;;;;;8.10;4.65;;;;;;;16.54;31.28;101105.31;5565683;32;34907;-58
2022/04/14 09:18:32;;;;;;;7.68;4.82;;;;;;;16.55;31.51;101101.50;5566716;32;33903;-58
2022/04/14 09:21:34;;;;;;;7.40;4.40;;;;;;;16.68;32.88;101108.00;5566306;32;31642;-58
2022/04/14 09:24:47;;;;;;;7.70;4.40;;;;;;;16.68;28.75;101105.28;5560202;32;33809;-58
2022/04/14 09:27:49;;;;;;;11.10;4.85;;;;;;;16.76;31.65;101107.34;5567234;31;34455;-58
2022/04/14 09:31:02;;;;;;;6.07;4.40;;;;;;;16.78;30.27;101107.00;5561491;32;34470;-58
2022/04/14 09:34:05;;;;;;;10.10;4.62;;;;;;;16.82;27.04;101103.41;5562040;32;33861;-57
2022/04/14 09:37:08;;;;;;;11.00;3.95;;;;;;;16.82;33.70;101099.88;5561625;32;34841;-58
2022/04/14 09:40:13;;;;;;;10.27;4.43;;;;;;;16.83;31.14;101109.62;5560400;32;33923;-58
2022/04/14 09:43:17;;;;;;;8.60;4.80;;;;;;;16.83;30.63;101106.91;5565659;31;33613;-58
2022/04/14 09:46:20;;;;;;;7.65;4.40;;;;;;;16.84;28.24;101105.81;5567129;32;33292;-58
2022/04/14 09:49:23;;;;;;;11.23;4.78;;;;;;;16.92;31.47;101091.56;5564063;32;34413;-57
2022/04/14 09:52:25;;;;;;;8.82;4.82;;;;;;;16.97;29.07;101096.84;5564751;32;33704;-58
2022/04/14 09:55:28;;;;;;;11.10;4.37;;;;;;;17.00;27.85;101092.72;5563419;32;34393;-57
2022/04/14 09:58:31;;;;;;;7.57;4.82;;;;;;;17.00;32.74;101090.81;5564993;32;33740;-58
2022/04/14 10:01:34;;;;;;;7.47;4.43;;;;;;;17.04;34.98;101096.41;5563126;31;34312;-58
2022/04/14 10:04:40;;;;;;;8.30;4.93;;;;;;;17.21;36.79;101096.56;5563385;32;33960;-58
2022/04/14 10:07:57;;;;;;;8.45;4.68;;;;;;;17.17;32.89;101087.44;5568785;32;34484;-58
2022/04/14 10:11:07;;;;;;;6.70;4.43;;;;;;;17.18;28.69;101078.19;5567489;32;34434;-58
2022/04/14 10:14:10;;;;;;;7.37;3.90;;;;;;;17.26;35.72;101082.09;5567631;32;33874;-58
2022/04/14 10:17:14;;;;;;;8.18;3.83;;;;;;;17.12;24.86;101071.31;5568496;32;33688;-58
2022/04/14 10:20:18;;;;;;;5.97;3.53;;;;;;;17.14;28.94;101069.88;5566093;32;33284;-58
2022/04/14 10:23:20;;;;;;;6.55;3.60;;;;;;;17.25;28.80;101070.47;5563437;32;35952;-58
2022/04/14 10:26:23;;;;;;;4.68;3.30;;;;;;;17.31;29.44;101063.00;5563786;32;33797;-58
2022/04/14 10:29:26;;;;;;;6.30;3.60;;;;;;;17.36;27.04;101062.88;5557586;32;34536;-58
2022/04/14 10:32:30;;;;;;;7.97;3.75;;;;;;;17.43;27.81;101059.72;5554032;32;34499;-57
2022/04/14 10:35:32;;;;;;;5.28;3.55;;;;;;;17.41;29.05;101051.91;5568883;32;34363;-58
2022/04/14 10:38:37;;;;;;;12.23;4.50;;;;;;;17.49;25.76;101050.37;5565495;32;34387;-58
2022/04/14 10:41:44;;;;;;;6.82;3.75;;;;;;;17.54;33.39;101055.66;5561707;32;34321;-58
2022/04/14 10:44:51;;;;;;;5.87;4.18;;;;;;;17.59;24.62;101047.41;5568666;32;33713;-58
2022/04/14 10:47:56;;;;;;;7.47;4.62;;;;;;;17.59;28.65;101052.81;5568709;32;33720;-58
2022/04/14 10:51:13;;;;;;;5.80;3.95;;;;;;;17.64;26.72;101044.53;5568762;32;34270;-58
2022/04/14 10:54:19;;;;;;;6.62;4.32;;;;;;;17.68;29.05;101042.81;5568312;32;34319;-57
2022/04/14 10:57:38;;;;;;;9.95;4.57;;;;;;;17.78;27.00;101039.88;5558003;32;33972;-58
2022/04/14 11:00:40;;;;;;;10.13;4.87;;;;;;;17.81;28.10;101041.13;5562743;32;33253;-58
2022/04/14 11:03:52;;;;;;;6.73;4.93;;;;;;;17.82;28.39;101031.91;5549331;32;33631;-58
2022/04/14 11:07:08;;;;;;;6.30;4.40;;;;;;;17.85;26.77;101031.28;5552323;32;33640;-58
2022/04/14 11:10:13;;;;;;;8.27;5.18;;;;;;;17.81;29.45;101038.41;5550185;32;33292;-57
2022/04/14 11:13:16;;;;;;;7.30;4.87;;;;;;;17.90;31.56;101039.25;5566695;32;34348;-58
2022/04/14 11:16:49;;;;;;;10.35;5.72;;;;;;;17.94;29.89;101034.81;5568305;32;34274;-58
2022/04/14 11:19:51;;;;;;;8.30;5.03;;;;;;;17.96;26.04;101034.50;5567824;32;32399;-58
2022/04/14 11:23:17;;;;;;;11.23;5.43;;;;;;;18.00;27.44;101033.56;5549635;32;34330;-58
2022/04/14 11:26:34;;;;;;;7.25;5.15;;;;;;;18.11;28.77;101025.12;5566978;32;33612;-58
2022/04/14 11:29:38;;;;;;;7.87;5.55;;;;;;;18.12;32.59;101029.47;5568753;32;33701;-58
2022/04/14 11:32:41;;;;;;;10.13;5.57;;;;;;;18.14;25.95;101013.63;5565704;32;33586;-58
2022/04/14 11:36:14;;;;;;;7.57;5.20;;;;;;;18.05;25.79;101013.63;5568307;32;33706;-57
2022/04/14 11:39:29;;;;;;;10.32;5.28;;;;;;;18.13;26.01;101012.84;5560584;32;33710;-58
2022/04/14 11:42:31;;;;;;;8.43;5.57;;;;;;;18.16;30.65;101006.00;5567398;32;33975;-58
2022/04/14 11:45:34;;;;;;;8.30;5.60;;;;;;;18.22;30.23;101007.44;5567346;32;34268;-58
2022/04/14 11:48:36;;;;;;;9.15;5.85;;;;;;;18.17;27.76;101008.38;5561096;32;33430;-58
2022/04/14 11:51:41;;;;;;;11.90;5.62;;;;;;;18.27;28.68;101007.28;5567467;32;33639;-58
2022/04/14 11:54:45;;;;;;;8.73;5.37;;;;;;;18.39;29.71;101002.03;5564210;32;33754;-58
2022/04/14 11:57:48;;;;;;;6.90;4.40;;;;;;;18.38;25.95;100989.59;5562839;32;33739;-58
2022/04/14 12:00:51;;;;;;;7.55;4.87;;;;;;;18.36;30.53;100993.75;5566120;32;34288;-58
2022/04/14 12:03:53;;;;;;;8.20;4.90;;;;;;;18.40;28.30;100990.06;5558797;32;34373;-58
2022/04/14 12:06:56;;;;;;;5.85;4.30;;;;;;;18.48;24.63;100985.78;5560156;32;33751;-58
2022/04/14 12:10:08;;;;;;;10.82;4.60;;;;;;;18.45;25.01;100983.69;5553419;32;34356;-58
2022/04/14 12:13:12;;;;;;;7.97;4.28;;;;;;;18.49;27.33;100971.06;5558302;32;34343;-58
2022/04/14 12:16:14;;;;;;;6.78;4.50;;;;;;;18.62;25.43;100972.84;5559884;32;34304;-58
2022/04/14 12:19:18;;;;;;;5.25;3.78;;;;;;;18.61;23.63;100967.72;5565754;32;33301;-58
2022/04/14 12:22:23;;;;;;;6.18;4.03;;;;;;;18.63;28.42;100976.34;5564263;32;33788;-57
2022/04/14 12:25:27;;;;;;;5.20;3.45;;;;;;;18.69;26.80;100962.28;5566526;32;34255;-58
2022/04/14 12:28:30;;;;;;;7.22;3.30;;;;;;;18.70;26.24;100944.06;5561579;31;34400;-58
2022/04/14 12:31:32;;;;;;;7.20;3.65;;;;;;;18.63;24.86;100933.69;5563814;32;34279;-58
2022/04/14 12:34:35;;;;;;;4.90;2.95;;;;;;;18.65;24.86;100936.91;5570323;32;33653;-58
2022/04/14 12:37:39;;;;;;;5.00;2.85;;;;;;;18.65;25.63;100936.09;5566773;32;33696;-58
2022/04/14 12:41:03;;;;;;;6.35;3.40;;;;;;;18.66;26.41;100930.34;5564861;32;33591;-58
2022/04/14 12:44:06;;;;;;;5.55;2.87;;;;;;;18.76;23.88;100921.09;5555678;32;34086;-57
2022/04/14 12:47:12;;;;;;;6.07;3.30;;;;;;;18.82;23.57;100910.88;5569203;32;33839;-57
2022/04/14 12:50:19;;;;;;;6.12;3.15;;;;;;;18.81;24.25;100920.94;5569749;32;34258;-58
2022/04/14 12:53:25;;;;;;;10.60;3.30;;;;;;;18.87;23.38;100916.09;5565461;32;33600;-58
2022/04/14 12:56:29;;;;;;;5.82;3.40;;;;;;;18.90;24.07;100910.81;5565986;32;33347;-58
2022/04/14 12:59:33;;;;;;;9.40;3.53;;;;;;;18.92;27.00;100908.59;5568034;32;33627;-58
2022/04/14 13:02:39;;;;;;;7.78;2.50;;;;;;;18.96;26.03;100906.03;5566671;32;34416;-57
2022/04/14 13:05:43;;;;;;;7.20;3.12;;;;;;;19.03;25.95;100890.03;5568827;32;33783;-57
2022/04/14 13:08:45;;;;;;;7.15;3.17;;;;;;;19.02;23.80;100897.38;5560148;32;33757;-57
2022/04/14 13:11:49;;;;;;;7.82;3.22;;;;;;;19.00;22.23;100898.81;5566675;32;33913;-58
2022/04/14 13:14:51;;;;;;;6.75;3.33;;;;;;;19.09;23.23;100890.66;5570091;32;33742;-58
2022/04/14 13:18:06;;;;;;;7.70;3.20;;;;;;;19.12;23.18;100882.66;5568410;32;33752;-58
2022/04/14 13:21:09;;;;;;;7.72;3.03;;;;;;;19.16;23.18;100880.87;5569159;32;33863;-57
2022/04/14 13:24:12;;;;;;;6.00;3.22;;;;;;;19.19;24.34;100874.78;5568849;32;34303;-57
2022/04/14 13:27:14;;;;;;;6.82;2.92;;;;;;;19.18;25.22;100875.13;5564302;32;34348;-58
2022/04/14 13:30:17;;;;;;;6.97;3.00;;;;;;;19.21;22.40;100863.59;5559157;32;33671;-57
2022/04/14 13:33:19;;;;;;;6.20;3.08;;;;;;;19.17;22.69;100866.16;5568458;32;34935;-57
2022/04/14 13:36:21;;;;;;;5.28;2.75;;;;;;;19.16;24.66;100859.12;5569041;32;33759;-58
2022/04/14 13:39:24;;;;;;;6.32;3.25;;;;;;;19.27;23.58;100861.47;5561759;32;33738;-57
2022/04/14 13:42:26;;;;;;;6.57;3.00;;;;;;;19.20;23.23;100853.81;5563295;32;34343;-57
2022/04/14 13:45:28;;;;;;;7.15;2.80;;;;;;;19.23;22.60;100853.19;5565379;32;33804;-58
2022/04/14 13:48:31;;;;;;;4.93;3.37;;;;;;;19.31;25.17;100857.00;5567663;32;33614;-57
2022/04/14 13:51:34;;;;;;;7.47;3.05;;;;;;;19.29;24.39;100853.81;5562074;32;32188;-57
2022/04/14 13:54:36;;;;;;;10.70;3.80;;;;;;;19.26;23.65;100852.53;5552461;32;33743;-57
2022/04/14 13:57:38;;;;;;;5.00;2.92;;;;;;;19.36;22.56;100843.22;5566501;32;33682;-57
2022/04/14 14:00:42;;;;;;;10.60;3.00;;;;;;;19.46;28.33;100845.53;5566800;32;33933;-57
2022/04/14 14:03:45;;;;;;;6.95;3.37;;;;;;;19.42;27.56;100837.25;5566743;32;34367;-57
2022/04/14 14:06:47;;;;;;;7.25;3.45;;;;;;;19.38;25.15;100841.75;5569420;32;33399;-57
2022/04/14 14:09:49;;;;;;;7.50;3.15;;;;;;;19.37;24.84;100842.06;5567992;32;34273;-58
2022/04/14 14:12:51;;;;;;;10.32;3.37;;;;;;;19.35;24.71;100845.12;5564010;32;34262;-57
2022/04/14 14:15:54;;;;;;;9.40;3.47;;;;;;;19.36;26.25;100838.56;5568410;32;33983;-57
2022/04/14 14:18:56;;;;;;;6.32;3.03;;;;;;;19.49;23.67;100832.09;5569119;32;33616;-57
2022/04/14 14:22:01;;;;;;;6.25;3.50;;;;;;;19.46;28.23;100834.66;5566875;32;33597;-57
2022/04/14 14:25:04;;;;;;;7.57;3.00;;;;;;;19.47;24.21;100837.06;5569021;32;33701;-57
2022/04/14 14:28:06;;;;;;;5.60;3.50;;;;;;;19.42;27.21;100836.47;5568694;32;33787;-57
2022/04/14 14:31:10;;;;;;;6.35;2.97;;;;;;;19.42;23.10;100839.19;5566868;32;34423;-57
2022/04/14 14:34:16;;;;;;;6.25;3.70;;;;;;;19.45;22.98;100831.16;5569254;32;33934;-57
2022/04/14 14:37:18;;;;;;;9.43;4.15;;;;;;;19.49;23.60;100823.94;5568711;32;33709;-57
2022/04/14 14:40:22;;;;;;;6.47;3.22;;;;;;;19.43;24.24;100829.87;5568961;32;33822;-57
2022/04/14 14:43:24;;;;;;;6.93;3.37;;;;;;;19.42;24.31;100831.03;5567737;32;33679;-57
2022/04/14 14:46:26;;;;;;;5.60;3.30;;;;;;;19.38;24.31;100827.37;5568527;32;33564;-57
2022/04/14 14:49:29;;;;;;;8.55;3.20;;;;;;;19.35;23.74;100828.81;5568769;32;33813;-57
2022/04/14 14:52:33;;;;;;;9.50;3.35;;;;;;;19.34;24.15;100823.72;5564506;32;33753;-57
2022/04/14 14:55:35;;;;;;;9.70;3.80;;;;;;;19.33;24.25;100828.34;5564666;32;33744;-57
2022/04/14 15:01:59;;;;;;;7.97;3.42;;;;;;;19.45;25.20;100824.94;5562429;32;33728;-57
